sensor_id;sensor_type;location;lat;lon;timestamp;P1;durP1;ratioP1;P2;durP2;ratioP2
41572;SDS011;27286;47.870;19.006;2022-12-20T00:00:48;49.33;;;26.48;;
41572;SDS011;27286;47.870;19.006;2022-12-20T00:03:13;53.33;;;25.45;;
41572;SDS011;27286;47.870;19.006;2022-12-20T00:05:40;53.10;;;27.55;;
41572;SDS011;27286;47.870;19.006;2022-12-20T00:08:06;56.20;;;28.35;;
41572;SDS011;27286;47.870;19.006;2022-12-20T00:10:40;56.35;;;28.00;;
41572;SDS011;27286;47.870;19.006;2022-12-20T00:13:08;52.95;;;28.52;;
41572;SDS011;27286;47.870;19.006;2022-12-20T00:15:34;52.75;;;27.33;;
41572;SDS011;27286;47.870;19.006;2022-12-20T00:18:00;57.92;;;26.80;;
41572;SDS011;27286;47.870;19.006;2022-12-20T00:20:26;55.58;;;26.58;;
41572;SDS011;27286;47.870;19.006;2022-12-20T00:22:52;50.70;;;26.10;;
41572;SDS011;27286;47.870;19.006;2022-12-20T00:25:17;56.97;;;27.48;;
41572;SDS011;27286;47.870;19.006;2022-12-20T00:27:44;52.05;;;27.83;;
41572;SDS011;27286;47.870;19.006;2022-12-20T00:30:11;54.40;;;26.80;;
41572;SDS011;27286;47.870;19.006;2022-12-20T00:32:36;53.78;;;26.98;;
41572;SDS011;27286;47.870;19.006;2022-12-20T00:35:02;53.75;;;27.17;;
41572;SDS011;27286;47.870;19.006;2022-12-20T00:37:28;53.08;;;27.30;;
41572;SDS011;27286;47.870;19.006;2022-12-20T00:39:53;53.70;;;26.42;;
41572;SDS011;27286;47.870;19.006;2022-12-20T00:42:18;58.05;;;29.33;;
41572;SDS011;27286;47.870;19.006;2022-12-20T00:44:44;57.53;;;28.98;;
41572;SDS011;27286;47.870;19.006;2022-12-20T00:47:09;60.22;;;29.60;;
41572;SDS011;27286;47.870;19.006;2022-12-20T00:49:35;58.35;;;31.40;;
41572;SDS011;27286;47.870;19.006;2022-12-20T00:52:00;55.35;;;27.67;;
41572;SDS011;27286;47.870;19.006;2022-12-20T00:54:25;52.60;;;27.60;;
41572;SDS011;27286;47.870;19.006;2022-12-20T00:56:51;58.83;;;28.98;;
41572;SDS011;27286;47.870;19.006;2022-12-20T00:59:16;48.10;;;26.00;;
41572;SDS011;27286;47.870;19.006;2022-12-20T01:01:41;60.45;;;28.52;;
41572;SDS011;27286;47.870;19.006;2022-12-20T01:04:07;49.30;;;26.00;;
41572;SDS011;27286;47.870;19.006;2022-12-20T01:06:33;48.80;;;25.95;;
41572;SDS011;27286;47.870;19.006;2022-12-20T01:08:59;52.75;;;25.98;;
41572;SDS011;27286;47.870;19.006;2022-12-20T01:11:26;56.42;;;26.25;;
41572;SDS011;27286;47.870;19.006;2022-12-20T01:13:58;57.95;;;27.20;;
41572;SDS011;27286;47.870;19.006;2022-12-20T01:16:29;58.88;;;27.27;;
41572;SDS011;27286;47.870;19.006;2022-12-20T01:19:05;55.28;;;26.80;;
41572;SDS011;27286;47.870;19.006;2022-12-20T01:21:32;50.15;;;25.52;;
41572;SDS011;27286;47.870;19.006;2022-12-20T01:23:58;51.83;;;25.20;;
41572;SDS011;27286;47.870;19.006;2022-12-20T01:26:24;47.45;;;24.88;;
41572;SDS011;27286;47.870;19.006;2022-12-20T01:28:54;49.17;;;25.48;;
41572;SDS011;27286;47.870;19.006;2022-12-20T01:31:20;56.35;;;26.98;;
41572;SDS011;27286;47.870;19.006;2022-12-20T01:33:46;51.33;;;26.00;;
41572;SDS011;27286;47.870;19.006;2022-12-20T01:36:14;55.95;;;27.88;;
41572;SDS011;27286;47.870;19.006;2022-12-20T01:38:42;52.78;;;27.27;;
41572;SDS011;27286;47.870;19.006;2022-12-20T01:41:08;50.20;;;25.85;;
41572;SDS011;27286;47.870;19.006;2022-12-20T01:46:17;50.17;;;25.58;;
41572;SDS011;27286;47.870;19.006;2022-12-20T01:48:45;55.42;;;26.77;;
41572;SDS011;27286;47.870;19.006;2022-12-20T01:51:18;52.90;;;26.50;;
41572;SDS011;27286;47.870;19.006;2022-12-20T01:53:44;48.30;;;25.13;;
41572;SDS011;27286;47.870;19.006;2022-12-20T01:56:11;49.15;;;26.42;;
41572;SDS011;27286;47.870;19.006;2022-12-20T01:58:36;50.03;;;26.23;;
41572;SDS011;27286;47.870;19.006;2022-12-20T02:01:03;47.95;;;25.80;;
41572;SDS011;27286;47.870;19.006;2022-12-20T02:03:29;52.70;;;26.35;;
41572;SDS011;27286;47.870;19.006;2022-12-20T02:05:56;54.50;;;26.27;;
41572;SDS011;27286;47.870;19.006;2022-12-20T02:08:21;52.13;;;26.85;;
41572;SDS011;27286;47.870;19.006;2022-12-20T02:11:04;49.95;;;25.13;;
41572;SDS011;27286;47.870;19.006;2022-12-20T02:16:27;52.15;;;27.17;;
41572;SDS011;27286;47.870;19.006;2022-12-20T02:18:59;50.47;;;26.05;;
41572;SDS011;27286;47.870;19.006;2022-12-20T02:21:31;47.92;;;25.88;;
41572;SDS011;27286;47.870;19.006;2022-12-20T02:35:20;45.17;;;24.52;;
41572;SDS011;27286;47.870;19.006;2022-12-20T02:37:52;47.55;;;24.13;;
41572;SDS011;27286;47.870;19.006;2022-12-20T02:40:27;42.45;;;23.88;;
41572;SDS011;27286;47.870;19.006;2022-12-20T02:42:58;47.88;;;26.02;;
41572;SDS011;27286;47.870;19.006;2022-12-20T02:45:31;55.13;;;25.23;;
41572;SDS011;27286;47.870;19.006;2022-12-20T02:48:05;49.45;;;24.83;;
41572;SDS011;27286;47.870;19.006;2022-12-20T02:50:41;53.25;;;27.30;;
41572;SDS011;27286;47.870;19.006;2022-12-20T02:53:11;50.00;;;26.13;;
41572;SDS011;27286;47.870;19.006;2022-12-20T02:55:40;49.40;;;25.08;;
41572;SDS011;27286;47.870;19.006;2022-12-20T02:58:25;50.55;;;23.63;;
41572;SDS011;27286;47.870;19.006;2022-12-20T03:00:58;46.95;;;23.23;;
41572;SDS011;27286;47.870;19.006;2022-12-20T03:03:28;46.63;;;23.42;;
41572;SDS011;27286;47.870;19.006;2022-12-20T03:05:56;42.30;;;21.50;;
41572;SDS011;27286;47.870;19.006;2022-12-20T03:08:22;41.38;;;22.17;;
41572;SDS011;27286;47.870;19.006;2022-12-20T03:10:48;38.30;;;21.55;;
41572;SDS011;27286;47.870;19.006;2022-12-20T03:13:15;44.78;;;21.85;;
41572;SDS011;27286;47.870;19.006;2022-12-20T03:15:41;38.72;;;21.17;;
41572;SDS011;27286;47.870;19.006;2022-12-20T03:18:07;41.90;;;22.23;;
41572;SDS011;27286;47.870;19.006;2022-12-20T03:20:33;42.67;;;21.20;;
41572;SDS011;27286;47.870;19.006;2022-12-20T03:22:59;38.83;;;20.05;;
41572;SDS011;27286;47.870;19.006;2022-12-20T03:25:24;36.83;;;19.95;;
41572;SDS011;27286;47.870;19.006;2022-12-20T03:27:50;42.38;;;21.45;;
41572;SDS011;27286;47.870;19.006;2022-12-20T03:30:15;43.67;;;22.75;;
41572;SDS011;27286;47.870;19.006;2022-12-20T03:32:41;40.72;;;20.50;;
41572;SDS011;27286;47.870;19.006;2022-12-20T03:35:06;42.35;;;20.92;;
41572;SDS011;27286;47.870;19.006;2022-12-20T03:37:32;39.20;;;19.80;;
41572;SDS011;27286;47.870;19.006;2022-12-20T03:39:58;42.28;;;19.88;;
41572;SDS011;27286;47.870;19.006;2022-12-20T03:42:23;43.30;;;21.25;;
41572;SDS011;27286;47.870;19.006;2022-12-20T03:44:49;42.63;;;22.40;;
41572;SDS011;27286;47.870;19.006;2022-12-20T03:47:14;42.20;;;21.67;;
41572;SDS011;27286;47.870;19.006;2022-12-20T03:49:39;44.92;;;23.05;;
41572;SDS011;27286;47.870;19.006;2022-12-20T03:52:05;44.08;;;22.50;;
41572;SDS011;27286;47.870;19.006;2022-12-20T03:54:31;44.75;;;23.30;;
41572;SDS011;27286;47.870;19.006;2022-12-20T03:56:56;41.65;;;21.52;;
41572;SDS011;27286;47.870;19.006;2022-12-20T03:59:22;42.67;;;21.55;;
41572;SDS011;27286;47.870;19.006;2022-12-20T04:01:47;40.80;;;22.02;;
41572;SDS011;27286;47.870;19.006;2022-12-20T04:04:13;39.25;;;21.85;;
41572;SDS011;27286;47.870;19.006;2022-12-20T04:06:40;45.03;;;21.80;;
41572;SDS011;27286;47.870;19.006;2022-12-20T04:09:05;42.85;;;22.15;;
41572;SDS011;27286;47.870;19.006;2022-12-20T04:11:31;34.83;;;19.15;;
41572;SDS011;27286;47.870;19.006;2022-12-20T04:13:56;41.67;;;21.42;;
41572;SDS011;27286;47.870;19.006;2022-12-20T04:16:22;40.63;;;21.20;;
41572;SDS011;27286;47.870;19.006;2022-12-20T04:18:49;39.00;;;19.83;;
41572;SDS011;27286;47.870;19.006;2022-12-20T04:21:19;36.90;;;19.05;;
41572;SDS011;27286;47.870;19.006;2022-12-20T04:23:46;42.38;;;19.25;;
41572;SDS011;27286;47.870;19.006;2022-12-20T04:26:12;39.20;;;17.92;;
41572;SDS011;27286;47.870;19.006;2022-12-20T04:28:37;37.85;;;18.90;;
41572;SDS011;27286;47.870;19.006;2022-12-20T04:31:03;45.35;;;22.75;;
41572;SDS011;27286;47.870;19.006;2022-12-20T04:33:28;37.85;;;21.88;;
41572;SDS011;27286;47.870;19.006;2022-12-20T04:35:54;52.28;;;29.83;;
41572;SDS011;27286;47.870;19.006;2022-12-20T04:38:20;35.83;;;20.23;;
41572;SDS011;27286;47.870;19.006;2022-12-20T04:40:53;39.38;;;19.75;;
41572;SDS011;27286;47.870;19.006;2022-12-20T04:43:19;39.03;;;19.65;;
41572;SDS011;27286;47.870;19.006;2022-12-20T04:45:46;42.10;;;21.08;;
41572;SDS011;27286;47.870;19.006;2022-12-20T04:48:12;37.17;;;19.67;;
41572;SDS011;27286;47.870;19.006;2022-12-20T04:50:38;36.65;;;19.77;;
41572;SDS011;27286;47.870;19.006;2022-12-20T04:53:04;36.15;;;18.60;;
41572;SDS011;27286;47.870;19.006;2022-12-20T04:55:48;34.22;;;19.70;;
41572;SDS011;27286;47.870;19.006;2022-12-20T04:58:14;40.45;;;19.83;;
41572;SDS011;27286;47.870;19.006;2022-12-20T05:00:40;38.13;;;18.75;;
41572;SDS011;27286;47.870;19.006;2022-12-20T05:03:06;37.42;;;18.98;;
41572;SDS011;27286;47.870;19.006;2022-12-20T05:05:31;44.45;;;21.88;;
41572;SDS011;27286;47.870;19.006;2022-12-20T05:07:57;41.88;;;21.80;;
41572;SDS011;27286;47.870;19.006;2022-12-20T05:10:22;41.85;;;21.40;;
41572;SDS011;27286;47.870;19.006;2022-12-20T05:12:48;43.65;;;21.67;;
41572;SDS011;27286;47.870;19.006;2022-12-20T05:15:13;36.22;;;19.52;;
41572;SDS011;27286;47.870;19.006;2022-12-20T05:17:39;42.53;;;22.63;;
41572;SDS011;27286;47.870;19.006;2022-12-20T05:20:05;39.05;;;20.63;;
41572;SDS011;27286;47.870;19.006;2022-12-20T05:22:31;36.63;;;21.83;;
41572;SDS011;27286;47.870;19.006;2022-12-20T05:25:15;38.05;;;19.67;;
41572;SDS011;27286;47.870;19.006;2022-12-20T05:28:19;36.72;;;19.67;;
41572;SDS011;27286;47.870;19.006;2022-12-20T05:30:44;42.08;;;20.63;;
41572;SDS011;27286;47.870;19.006;2022-12-20T05:33:10;45.03;;;21.25;;
41572;SDS011;27286;47.870;19.006;2022-12-20T05:35:35;39.78;;;19.45;;
41572;SDS011;27286;47.870;19.006;2022-12-20T05:38:01;36.65;;;19.73;;
41572;SDS011;27286;47.870;19.006;2022-12-20T05:40:27;41.20;;;20.63;;
41572;SDS011;27286;47.870;19.006;2022-12-20T05:42:53;38.97;;;19.05;;
41572;SDS011;27286;47.870;19.006;2022-12-20T05:45:19;47.30;;;23.00;;
41572;SDS011;27286;47.870;19.006;2022-12-20T05:47:44;44.58;;;22.60;;
41572;SDS011;27286;47.870;19.006;2022-12-20T05:50:09;40.70;;;22.10;;
41572;SDS011;27286;47.870;19.006;2022-12-20T05:52:35;46.03;;;21.00;;
41572;SDS011;27286;47.870;19.006;2022-12-20T05:55:01;38.67;;;21.00;;
41572;SDS011;27286;47.870;19.006;2022-12-20T05:57:26;40.42;;;19.75;;
41572;SDS011;27286;47.870;19.006;2022-12-20T05:59:52;38.03;;;19.85;;
41572;SDS011;27286;47.870;19.006;2022-12-20T06:02:18;38.78;;;19.25;;
41572;SDS011;27286;47.870;19.006;2022-12-20T06:04:44;38.58;;;21.15;;
41572;SDS011;27286;47.870;19.006;2022-12-20T06:07:09;41.50;;;22.52;;
41572;SDS011;27286;47.870;19.006;2022-12-20T06:09:35;45.22;;;22.73;;
41572;SDS011;27286;47.870;19.006;2022-12-20T06:12:00;44.40;;;22.48;;
41572;SDS011;27286;47.870;19.006;2022-12-20T06:14:26;46.80;;;24.00;;
41572;SDS011;27286;47.870;19.006;2022-12-20T06:16:51;42.97;;;21.65;;
41572;SDS011;27286;47.870;19.006;2022-12-20T06:19:17;42.60;;;22.63;;
41572;SDS011;27286;47.870;19.006;2022-12-20T06:21:43;39.83;;;22.65;;
41572;SDS011;27286;47.870;19.006;2022-12-20T06:24:08;48.15;;;22.98;;
41572;SDS011;27286;47.870;19.006;2022-12-20T06:26:34;52.60;;;24.50;;
41572;SDS011;27286;47.870;19.006;2022-12-20T06:29:03;47.00;;;21.40;;
41572;SDS011;27286;47.870;19.006;2022-12-20T06:31:31;48.47;;;25.10;;
41572;SDS011;27286;47.870;19.006;2022-12-20T06:33:57;46.33;;;24.00;;
41572;SDS011;27286;47.870;19.006;2022-12-20T06:36:23;40.47;;;20.10;;
41572;SDS011;27286;47.870;19.006;2022-12-20T06:38:49;57.58;;;27.10;;
41572;SDS011;27286;47.870;19.006;2022-12-20T06:41:14;51.40;;;24.73;;
41572;SDS011;27286;47.870;19.006;2022-12-20T06:43:40;56.47;;;26.13;;
41572;SDS011;27286;47.870;19.006;2022-12-20T06:46:05;41.75;;;22.27;;
41572;SDS011;27286;47.870;19.006;2022-12-20T06:48:31;46.28;;;22.10;;
41572;SDS011;27286;47.870;19.006;2022-12-20T06:50:56;40.55;;;20.83;;
41572;SDS011;27286;47.870;19.006;2022-12-20T06:53:22;47.00;;;22.52;;
41572;SDS011;27286;47.870;19.006;2022-12-20T06:55:47;41.10;;;20.35;;
41572;SDS011;27286;47.870;19.006;2022-12-20T06:58:19;42.22;;;21.35;;
41572;SDS011;27286;47.870;19.006;2022-12-20T07:00:45;51.42;;;25.58;;
41572;SDS011;27286;47.870;19.006;2022-12-20T07:03:11;53.95;;;23.40;;
41572;SDS011;27286;47.870;19.006;2022-12-20T07:05:36;69.10;;;29.70;;
41572;SDS011;27286;47.870;19.006;2022-12-20T07:08:02;46.35;;;23.92;;
41572;SDS011;27286;47.870;19.006;2022-12-20T07:10:29;46.33;;;22.40;;
41572;SDS011;27286;47.870;19.006;2022-12-20T07:13:01;59.83;;;26.55;;
41572;SDS011;27286;47.870;19.006;2022-12-20T07:15:26;55.22;;;27.08;;
41572;SDS011;27286;47.870;19.006;2022-12-20T07:17:51;46.03;;;21.77;;
41572;SDS011;27286;47.870;19.006;2022-12-20T07:20:17;47.63;;;24.73;;
41572;SDS011;27286;47.870;19.006;2022-12-20T07:22:43;53.70;;;25.65;;
41572;SDS011;27286;47.870;19.006;2022-12-20T07:25:11;41.88;;;19.73;;
41572;SDS011;27286;47.870;19.006;2022-12-20T07:27:36;55.60;;;25.98;;
41572;SDS011;27286;47.870;19.006;2022-12-20T07:30:02;45.30;;;21.92;;
41572;SDS011;27286;47.870;19.006;2022-12-20T07:32:29;68.20;;;28.70;;
41572;SDS011;27286;47.870;19.006;2022-12-20T07:34:54;43.85;;;22.27;;
41572;SDS011;27286;47.870;19.006;2022-12-20T07:37:19;46.88;;;22.70;;
41572;SDS011;27286;47.870;19.006;2022-12-20T07:39:45;45.55;;;24.10;;
41572;SDS011;27286;47.870;19.006;2022-12-20T07:42:10;43.00;;;23.35;;
41572;SDS011;27286;47.870;19.006;2022-12-20T07:44:36;45.10;;;24.73;;
41572;SDS011;27286;47.870;19.006;2022-12-20T07:47:01;45.38;;;24.67;;
41572;SDS011;27286;47.870;19.006;2022-12-20T07:49:27;48.20;;;26.23;;
41572;SDS011;27286;47.870;19.006;2022-12-20T07:51:53;43.92;;;19.65;;
41572;SDS011;27286;47.870;19.006;2022-12-20T07:54:27;51.78;;;23.67;;
41572;SDS011;27286;47.870;19.006;2022-12-20T07:56:57;42.28;;;21.75;;
41572;SDS011;27286;47.870;19.006;2022-12-20T07:59:27;45.97;;;23.77;;
41572;SDS011;27286;47.870;19.006;2022-12-20T08:01:59;45.78;;;22.67;;
41572;SDS011;27286;47.870;19.006;2022-12-20T08:04:25;46.50;;;23.65;;
41572;SDS011;27286;47.870;19.006;2022-12-20T08:06:53;44.75;;;22.05;;
41572;SDS011;27286;47.870;19.006;2022-12-20T08:09:20;35.17;;;20.25;;
41572;SDS011;27286;47.870;19.006;2022-12-20T08:11:48;41.95;;;20.08;;
41572;SDS011;27286;47.870;19.006;2022-12-20T08:14:15;34.40;;;19.52;;
41572;SDS011;27286;47.870;19.006;2022-12-20T08:16:42;44.63;;;20.98;;
41572;SDS011;27286;47.870;19.006;2022-12-20T08:19:08;43.63;;;23.20;;
41572;SDS011;27286;47.870;19.006;2022-12-20T08:21:34;59.78;;;32.72;;
41572;SDS011;27286;47.870;19.006;2022-12-20T08:23:59;48.47;;;25.27;;
41572;SDS011;27286;47.870;19.006;2022-12-20T08:26:25;69.65;;;37.40;;
41572;SDS011;27286;47.870;19.006;2022-12-20T08:28:50;51.30;;;26.15;;
41572;SDS011;27286;47.870;19.006;2022-12-20T08:31:16;37.05;;;19.88;;
41572;SDS011;27286;47.870;19.006;2022-12-20T08:33:41;51.33;;;23.48;;
41572;SDS011;27286;47.870;19.006;2022-12-20T08:36:09;39.85;;;21.67;;
41572;SDS011;27286;47.870;19.006;2022-12-20T08:38:35;37.60;;;20.65;;
41572;SDS011;27286;47.870;19.006;2022-12-20T08:41:02;40.13;;;21.98;;
41572;SDS011;27286;47.870;19.006;2022-12-20T08:43:30;34.50;;;20.08;;
41572;SDS011;27286;47.870;19.006;2022-12-20T08:45:57;35.88;;;15.90;;
41572;SDS011;27286;47.870;19.006;2022-12-20T08:48:22;35.60;;;19.75;;
41572;SDS011;27286;47.870;19.006;2022-12-20T08:50:57;33.58;;;19.63;;
41572;SDS011;27286;47.870;19.006;2022-12-20T08:53:25;39.53;;;20.83;;
41572;SDS011;27286;47.870;19.006;2022-12-20T08:55:51;34.20;;;16.52;;
41572;SDS011;27286;47.870;19.006;2022-12-20T08:58:17;30.98;;;16.27;;
41572;SDS011;27286;47.870;19.006;2022-12-20T09:00:43;33.05;;;19.52;;
41572;SDS011;27286;47.870;19.006;2022-12-20T09:03:09;35.72;;;19.35;;
41572;SDS011;27286;47.870;19.006;2022-12-20T09:05:35;30.75;;;18.33;;
41572;SDS011;27286;47.870;19.006;2022-12-20T09:08:01;33.90;;;19.70;;
41572;SDS011;27286;47.870;19.006;2022-12-20T09:10:26;38.42;;;18.67;;
41572;SDS011;27286;47.870;19.006;2022-12-20T09:12:52;36.80;;;17.23;;
41572;SDS011;27286;47.870;19.006;2022-12-20T09:15:17;37.08;;;17.95;;
41572;SDS011;27286;47.870;19.006;2022-12-20T09:17:43;32.80;;;18.05;;
41572;SDS011;27286;47.870;19.006;2022-12-20T09:20:08;32.22;;;18.63;;
41572;SDS011;27286;47.870;19.006;2022-12-20T09:22:34;34.00;;;18.65;;
41572;SDS011;27286;47.870;19.006;2022-12-20T09:24:59;32.10;;;15.98;;
41572;SDS011;27286;47.870;19.006;2022-12-20T09:27:24;33.75;;;19.38;;
41572;SDS011;27286;47.870;19.006;2022-12-20T09:29:50;24.92;;;14.98;;
41572;SDS011;27286;47.870;19.006;2022-12-20T09:32:15;30.65;;;16.25;;
41572;SDS011;27286;47.870;19.006;2022-12-20T09:34:41;31.35;;;16.23;;
41572;SDS011;27286;47.870;19.006;2022-12-20T09:37:06;34.78;;;19.17;;
41572;SDS011;27286;47.870;19.006;2022-12-20T09:39:31;35.60;;;21.50;;
41572;SDS011;27286;47.870;19.006;2022-12-20T09:41:57;32.72;;;17.35;;
41572;SDS011;27286;47.870;19.006;2022-12-20T09:46:56;34.08;;;15.95;;
41572;SDS011;27286;47.870;19.006;2022-12-20T09:49:27;35.70;;;19.50;;
41572;SDS011;27286;47.870;19.006;2022-12-20T09:59:58;32.70;;;18.25;;
41572;SDS011;27286;47.870;19.006;2022-12-20T10:02:24;35.38;;;18.15;;
41572;SDS011;27286;47.870;19.006;2022-12-20T10:04:51;34.35;;;19.00;;
41572;SDS011;27286;47.870;19.006;2022-12-20T10:10:22;33.75;;;18.77;;
41572;SDS011;27286;47.870;19.006;2022-12-20T10:15:45;36.42;;;21.70;;
41572;SDS011;27286;47.870;19.006;2022-12-20T10:18:28;33.25;;;18.42;;
41572;SDS011;27286;47.870;19.006;2022-12-20T10:21:18;31.10;;;17.38;;
41572;SDS011;27286;47.870;19.006;2022-12-20T10:24:34;38.80;;;20.77;;
41572;SDS011;27286;47.870;19.006;2022-12-20T10:26:53;32.53;;;20.00;;
41572;SDS011;27286;47.870;19.006;2022-12-20T10:29:18;34.70;;;17.83;;
41572;SDS011;27286;47.870;19.006;2022-12-20T10:31:45;33.40;;;19.45;;
41572;SDS011;27286;47.870;19.006;2022-12-20T10:34:13;32.40;;;19.38;;
41572;SDS011;27286;47.870;19.006;2022-12-20T10:36:39;31.65;;;19.02;;
41572;SDS011;27286;47.870;19.006;2022-12-20T10:39:06;30.95;;;18.00;;
41572;SDS011;27286;47.870;19.006;2022-12-20T10:46:48;35.58;;;19.98;;
41572;SDS011;27286;47.870;19.006;2022-12-20T10:51:58;37.63;;;21.48;;
41572;SDS011;27286;47.870;19.006;2022-12-20T10:54:33;27.35;;;15.85;;
41572;SDS011;27286;47.870;19.006;2022-12-20T10:57:24;37.30;;;20.02;;
41572;SDS011;27286;47.870;19.006;2022-12-20T10:59:51;33.20;;;18.48;;
41572;SDS011;27286;47.870;19.006;2022-12-20T11:05:15;33.22;;;18.33;;
41572;SDS011;27286;47.870;19.006;2022-12-20T11:07:54;36.88;;;19.73;;
41572;SDS011;27286;47.870;19.006;2022-12-20T11:10:23;33.40;;;20.45;;
41572;SDS011;27286;47.870;19.006;2022-12-20T11:15:21;31.67;;;18.73;;
41572;SDS011;27286;47.870;19.006;2022-12-20T11:17:52;35.80;;;20.75;;
41572;SDS011;27286;47.870;19.006;2022-12-20T11:20:37;38.03;;;21.27;;
41572;SDS011;27286;47.870;19.006;2022-12-20T11:23:52;36.80;;;19.15;;
41572;SDS011;27286;47.870;19.006;2022-12-20T11:34:53;34.40;;;20.33;;
41572;SDS011;27286;47.870;19.006;2022-12-20T11:37:48;32.85;;;18.60;;
41572;SDS011;27286;47.870;19.006;2022-12-20T11:40:32;31.02;;;18.15;;
41572;SDS011;27286;47.870;19.006;2022-12-20T11:43:13;36.60;;;19.85;;
41572;SDS011;27286;47.870;19.006;2022-12-20T11:51:46;33.15;;;18.77;;
41572;SDS011;27286;47.870;19.006;2022-12-20T11:56:45;36.85;;;19.35;;
41572;SDS011;27286;47.870;19.006;2022-12-20T11:59:17;38.05;;;20.40;;
41572;SDS011;27286;47.870;19.006;2022-12-20T12:04:35;35.13;;;19.52;;
41572;SDS011;27286;47.870;19.006;2022-12-20T12:07:18;34.22;;;19.27;;
41572;SDS011;27286;47.870;19.006;2022-12-20T12:09:51;31.05;;;19.88;;
41572;SDS011;27286;47.870;19.006;2022-12-20T12:12:39;35.35;;;19.63;;
41572;SDS011;27286;47.870;19.006;2022-12-20T12:18:12;31.83;;;18.42;;
41572;SDS011;27286;47.870;19.006;2022-12-20T12:23:28;31.80;;;17.88;;
41572;SDS011;27286;47.870;19.006;2022-12-20T12:26:11;31.80;;;18.50;;
41572;SDS011;27286;47.870;19.006;2022-12-20T12:28:42;30.95;;;17.30;;
41572;SDS011;27286;47.870;19.006;2022-12-20T12:31:10;26.95;;;16.08;;
41572;SDS011;27286;47.870;19.006;2022-12-20T12:33:45;31.13;;;18.25;;
41572;SDS011;27286;47.870;19.006;2022-12-20T12:44:30;29.38;;;17.63;;
41572;SDS011;27286;47.870;19.006;2022-12-20T12:47:03;29.63;;;17.23;;
41572;SDS011;27286;47.870;19.006;2022-12-20T12:49:32;28.85;;;15.90;;
41572;SDS011;27286;47.870;19.006;2022-12-20T12:51:59;37.33;;;17.73;;
41572;SDS011;27286;47.870;19.006;2022-12-20T12:57:09;28.65;;;16.80;;
41572;SDS011;27286;47.870;19.006;2022-12-20T13:09:59;28.52;;;16.30;;
41572;SDS011;27286;47.870;19.006;2022-12-20T13:15:10;31.52;;;16.85;;
41572;SDS011;27286;47.870;19.006;2022-12-20T13:20:29;32.13;;;16.35;;
41572;SDS011;27286;47.870;19.006;2022-12-20T13:25:44;25.98;;;15.25;;
41572;SDS011;27286;47.870;19.006;2022-12-20T13:43:55;24.67;;;16.15;;
41572;SDS011;27286;47.870;19.006;2022-12-20T13:46:30;28.48;;;16.80;;
41572;SDS011;27286;47.870;19.006;2022-12-20T13:49:09;25.85;;;17.15;;
41572;SDS011;27286;47.870;19.006;2022-12-20T13:51:39;28.00;;;16.92;;
41572;SDS011;27286;47.870;19.006;2022-12-20T13:54:05;27.05;;;16.38;;
41572;SDS011;27286;47.870;19.006;2022-12-20T13:56:40;26.65;;;16.15;;
41572;SDS011;27286;47.870;19.006;2022-12-20T13:59:14;31.98;;;18.58;;
41572;SDS011;27286;47.870;19.006;2022-12-20T14:01:47;31.70;;;18.42;;
41572;SDS011;27286;47.870;19.006;2022-12-20T14:04:14;31.27;;;17.08;;
41572;SDS011;27286;47.870;19.006;2022-12-20T14:06:41;32.25;;;16.92;;
41572;SDS011;27286;47.870;19.006;2022-12-20T14:09:25;27.02;;;16.75;;
41572;SDS011;27286;47.870;19.006;2022-12-20T14:11:53;31.05;;;19.52;;
41572;SDS011;27286;47.870;19.006;2022-12-20T14:14:19;30.85;;;18.58;;
41572;SDS011;27286;47.870;19.006;2022-12-20T14:16:44;38.15;;;20.75;;
41572;SDS011;27286;47.870;19.006;2022-12-20T14:19:13;35.58;;;19.35;;
41572;SDS011;27286;47.870;19.006;2022-12-20T14:21:40;51.35;;;19.45;;
41572;SDS011;27286;47.870;19.006;2022-12-20T14:24:17;35.53;;;19.35;;
41572;SDS011;27286;47.870;19.006;2022-12-20T14:26:46;35.00;;;20.33;;
41572;SDS011;27286;47.870;19.006;2022-12-20T14:29:16;32.10;;;18.52;;
41572;SDS011;27286;47.870;19.006;2022-12-20T14:31:45;35.17;;;19.27;;
41572;SDS011;27286;47.870;19.006;2022-12-20T14:34:15;32.30;;;17.85;;
41572;SDS011;27286;47.870;19.006;2022-12-20T14:36:46;32.13;;;17.75;;
41572;SDS011;27286;47.870;19.006;2022-12-20T14:39:26;33.00;;;19.00;;
41572;SDS011;27286;47.870;19.006;2022-12-20T14:44:25;29.60;;;18.02;;
41572;SDS011;27286;47.870;19.006;2022-12-20T14:46:53;37.50;;;19.13;;
41572;SDS011;27286;47.870;19.006;2022-12-20T14:49:24;36.95;;;19.15;;
41572;SDS011;27286;47.870;19.006;2022-12-20T14:51:51;45.50;;;26.75;;
41572;SDS011;27286;47.870;19.006;2022-12-20T14:54:28;51.65;;;28.35;;
41572;SDS011;27286;47.870;19.006;2022-12-20T14:56:53;43.08;;;23.73;;
41572;SDS011;27286;47.870;19.006;2022-12-20T14:59:23;36.20;;;21.17;;
41572;SDS011;27286;47.870;19.006;2022-12-20T15:01:51;35.17;;;20.33;;
41572;SDS011;27286;47.870;19.006;2022-12-20T15:06:56;32.25;;;19.77;;
41572;SDS011;27286;47.870;19.006;2022-12-20T15:09:21;37.33;;;21.83;;
41572;SDS011;27286;47.870;19.006;2022-12-20T15:11:47;41.50;;;20.80;;
41572;SDS011;27286;47.870;19.006;2022-12-20T15:17:11;38.65;;;21.60;;
41572;SDS011;27286;47.870;19.006;2022-12-20T15:19:41;37.85;;;20.88;;
41572;SDS011;27286;47.870;19.006;2022-12-20T15:22:13;40.17;;;22.00;;
41572;SDS011;27286;47.870;19.006;2022-12-20T15:24:41;36.83;;;22.23;;
41572;SDS011;27286;47.870;19.006;2022-12-20T15:27:14;38.30;;;21.83;;
41572;SDS011;27286;47.870;19.006;2022-12-20T15:29:39;41.55;;;21.08;;
41572;SDS011;27286;47.870;19.006;2022-12-20T15:34:40;37.80;;;22.13;;
41572;SDS011;27286;47.870;19.006;2022-12-20T15:37:05;35.03;;;20.67;;
41572;SDS011;27286;47.870;19.006;2022-12-20T15:39:35;39.10;;;22.02;;
41572;SDS011;27286;47.870;19.006;2022-12-20T15:42:01;34.17;;;21.42;;
41572;SDS011;27286;47.870;19.006;2022-12-20T15:44:29;35.95;;;21.48;;
41572;SDS011;27286;47.870;19.006;2022-12-20T15:46:55;37.42;;;22.75;;
41572;SDS011;27286;47.870;19.006;2022-12-20T15:49:22;38.22;;;21.70;;
41572;SDS011;27286;47.870;19.006;2022-12-20T15:51:49;35.78;;;20.45;;
41572;SDS011;27286;47.870;19.006;2022-12-20T15:54:50;38.40;;;20.88;;
41572;SDS011;27286;47.870;19.006;2022-12-20T15:57:08;41.63;;;22.95;;
41572;SDS011;27286;47.870;19.006;2022-12-20T15:59:36;40.70;;;23.38;;
41572;SDS011;27286;47.870;19.006;2022-12-20T16:02:02;38.42;;;22.00;;
41572;SDS011;27286;47.870;19.006;2022-12-20T16:04:28;34.40;;;21.40;;
41572;SDS011;27286;47.870;19.006;2022-12-20T16:06:53;38.85;;;21.67;;
41572;SDS011;27286;47.870;19.006;2022-12-20T16:09:19;39.58;;;23.15;;
41572;SDS011;27286;47.870;19.006;2022-12-20T16:11:45;43.80;;;23.67;;
41572;SDS011;27286;47.870;19.006;2022-12-20T16:14:15;41.50;;;24.10;;
41572;SDS011;27286;47.870;19.006;2022-12-20T16:16:42;43.50;;;25.63;;
41572;SDS011;27286;47.870;19.006;2022-12-20T16:19:08;35.92;;;23.27;;
41572;SDS011;27286;47.870;19.006;2022-12-20T16:21:35;39.40;;;23.38;;
41572;SDS011;27286;47.870;19.006;2022-12-20T16:24:10;38.15;;;21.42;;